createdAt,value
2018-07-10T00:00:02.582Z,932.02
2018-07-10T00:01:02.554Z,931.95
2018-07-10T00:02:02.504Z,931.93
2018-07-10T00:03:02.486Z,931.86
2018-07-10T00:04:02.460Z,931.90
2018-07-10T00:05:02.430Z,931.81
2018-07-10T00:06:02.411Z,931.83
2018-07-10T00:07:02.414Z,931.80
2018-07-10T00:08:02.387Z,931.90
2018-07-10T00:09:02.343Z,931.90
2018-07-10T00:10:02.344Z,931.89
2018-07-10T00:11:02.293Z,931.87
2018-07-10T00:12:02.267Z,932.00
2018-07-10T00:13:02.256Z,931.93
2018-07-10T00:14:02.247Z,931.95
2018-07-10T00:15:02.200Z,931.94
2018-07-10T00:16:02.199Z,931.92
2018-07-10T00:17:02.162Z,931.89
2018-07-10T00:18:02.126Z,931.88
2018-07-10T00:19:02.102Z,931.88
2018-07-10T00:20:02.074Z,931.95
2018-07-10T00:21:02.074Z,931.94
2018-07-10T00:22:02.030Z,931.92
2018-07-10T00:23:02.004Z,931.95
2018-07-10T00:24:01.983Z,931.92
2018-07-10T00:25:01.958Z,931.95
2018-07-10T00:26:01.937Z,931.95
2018-07-10T00:27:01.909Z,931.99
2018-07-10T00:28:01.905Z,931.96
2018-07-10T00:29:01.889Z,931.98
2018-07-10T00:30:01.868Z,932.00
2018-07-10T00:31:01.870Z,932.02
2018-07-10T00:32:01.796Z,932.01
2018-07-10T00:33:01.787Z,932.02
2018-07-10T00:34:01.743Z,931.98
2018-07-10T00:35:01.719Z,931.96
2018-07-10T00:36:01.699Z,931.89
2018-07-10T00:37:01.701Z,931.85
2018-07-10T00:38:01.649Z,931.91
2018-07-10T00:39:01.652Z,931.89
2018-07-10T00:40:01.608Z,931.85
2018-07-10T00:41:01.603Z,931.92
2018-07-10T00:42:01.581Z,931.94
2018-07-10T00:43:01.556Z,931.99
2018-07-10T00:44:01.536Z,931.98
2018-07-10T00:45:01.515Z,932.02
2018-07-10T00:46:01.457Z,932.02
2018-07-10T00:47:01.433Z,931.99
2018-07-10T00:48:01.412Z,931.99
2018-07-10T00:49:01.386Z,932.01
2018-07-10T00:50:01.392Z,932.04
2018-07-10T00:51:01.348Z,932.06
2018-07-10T00:52:01.318Z,932.07
2018-07-10T00:53:01.296Z,932.04
2018-07-10T00:54:01.298Z,932.09
2018-07-10T00:55:01.248Z,932.08
2018-07-10T00:56:01.249Z,932.10
2018-07-10T00:57:01.226Z,932.14
2018-07-10T00:58:01.179Z,932.18
2018-07-10T00:59:01.179Z,932.16
2018-07-10T01:00:01.127Z,932.17
2018-07-10T01:01:01.105Z,932.19
2018-07-10T01:02:01.085Z,932.21
2018-07-10T01:03:01.059Z,932.20
2018-07-10T01:04:01.061Z,932.25
2018-07-10T01:05:01.014Z,932.21
2018-07-10T01:06:00.986Z,932.24
2018-07-10T01:07:00.989Z,932.18
2018-07-10T01:08:00.951Z,932.18
2018-07-10T01:09:00.917Z,932.18
2018-07-10T01:10:00.889Z,932.22
2018-07-10T01:11:00.883Z,932.20
2018-07-10T01:12:00.843Z,932.21
2018-07-10T01:13:00.834Z,932.20
2018-07-10T01:14:00.829Z,932.20
2018-07-10T01:15:00.771Z,932.16
2018-07-10T01:16:00.752Z,932.16
2018-07-10T01:17:00.725Z,932.16
2018-07-10T01:18:00.702Z,932.21
2018-07-10T01:19:00.802Z,932.17
2018-07-10T01:20:00.656Z,932.21
2018-07-10T01:21:00.632Z,932.14
2018-07-10T01:22:00.634Z,932.16
2018-07-10T01:23:00.584Z,932.24
2018-07-10T01:24:00.559Z,932.26
2018-07-10T01:25:00.569Z,932.23
2018-07-10T01:26:00.520Z,932.29
2018-07-10T01:27:00.504Z,932.27
2018-07-10T01:28:00.462Z,932.31
2018-07-10T01:29:00.449Z,932.32
2018-07-10T01:30:00.417Z,932.33
2018-07-10T01:31:00.393Z,932.35
2018-07-10T01:32:00.383Z,932.38
2018-07-10T01:33:00.372Z,932.28
2018-07-10T01:34:00.325Z,932.33
2018-07-10T01:35:00.325Z,932.39
2018-07-10T01:36:00.286Z,932.46
2018-07-10T01:37:00.253Z,932.45
2018-07-10T01:38:00.235Z,932.38
2018-07-10T01:39:00.232Z,932.39
2018-07-10T01:40:00.337Z,932.37
2018-07-10T01:41:00.165Z,932.37
2018-07-10T01:42:00.157Z,932.31
2018-07-10T01:43:00.108Z,932.30
2018-07-10T01:44:00.090Z,932.37
2018-07-10T01:45:00.068Z,932.39
2018-07-10T01:46:00.035Z,932.33
2018-07-10T01:47:00.047Z,932.40
2018-07-10T01:47:59.993Z,932.32
2018-07-10T01:48:59.994Z,932.37
2018-07-10T01:49:59.949Z,932.41
2018-07-10T01:50:59.918Z,932.38
2018-07-10T01:51:59.919Z,932.37
2018-07-10T01:52:59.885Z,932.32
2018-07-10T01:53:59.866Z,932.35
2018-07-10T01:54:59.832Z,932.30
2018-07-10T01:55:59.810Z,932.24
2018-07-10T01:56:59.800Z,932.28
2018-07-10T01:57:59.779Z,932.29
2018-07-10T01:58:59.761Z,932.26
2018-07-10T01:59:59.720Z,932.23
2018-07-10T02:00:59.710Z,932.25
2018-07-10T02:01:59.658Z,932.21
2018-07-10T02:02:59.633Z,932.21
2018-07-10T02:03:59.620Z,932.18
2018-07-10T02:04:59.597Z,932.14
2018-07-10T02:05:59.572Z,932.05
2018-07-10T02:06:59.533Z,932.14
2018-07-10T02:07:59.544Z,932.18
2018-07-10T02:08:59.514Z,932.14
2018-07-10T02:09:59.491Z,932.08
2018-07-10T02:10:59.453Z,932.09
2018-07-10T02:11:59.424Z,932.13
2018-07-10T02:12:59.389Z,932.13
2018-07-10T02:13:59.408Z,932.10
2018-07-10T02:14:59.351Z,932.08
2018-07-10T02:15:59.321Z,932.09
2018-07-10T02:16:59.305Z,932.06
2018-07-10T02:17:59.293Z,932.11
2018-07-10T02:18:59.250Z,932.12
2018-07-10T02:19:59.237Z,932.13
2018-07-10T02:20:59.202Z,932.19
2018-07-10T02:21:59.211Z,932.20
2018-07-10T02:22:59.155Z,932.28
2018-07-10T02:23:59.129Z,932.23
2018-07-10T02:24:59.119Z,932.27
2018-07-10T02:25:59.090Z,932.29
2018-07-10T02:26:59.062Z,932.28
2018-07-10T02:27:59.036Z,932.24
2018-07-10T02:28:59.042Z,932.26
2018-07-10T02:29:58.985Z,932.24
2018-07-10T02:30:59.000Z,932.22
2018-07-10T02:31:58.953Z,932.19
2018-07-10T02:32:58.912Z,932.14
2018-07-10T02:33:58.901Z,932.17
2018-07-10T02:34:58.868Z,932.20
2018-07-10T02:35:58.867Z,932.18
2018-07-10T02:36:58.843Z,932.24
2018-07-10T02:37:58.797Z,932.23
2018-07-10T02:38:58.772Z,932.22
2018-07-10T02:39:58.758Z,932.07
2018-07-10T02:40:58.726Z,932.10
2018-07-10T02:41:58.706Z,932.18
2018-07-10T02:42:58.707Z,932.26
2018-07-10T02:43:58.679Z,932.28
2018-07-10T02:44:58.632Z,932.27
2018-07-10T02:45:58.629Z,932.29
2018-07-10T02:46:58.610Z,932.29
2018-07-10T02:47:58.585Z,932.31
2018-07-10T02:48:58.534Z,932.30
2018-07-10T02:49:58.527Z,932.26
2018-07-10T02:50:58.511Z,932.25
2018-07-10T02:51:58.458Z,932.24
2018-07-10T02:52:58.447Z,932.33
2018-07-10T02:53:58.441Z,932.36
2018-07-10T02:54:58.414Z,932.33
2018-07-10T02:55:58.370Z,932.33
2018-07-10T02:56:58.338Z,932.32
2018-07-10T02:57:58.343Z,932.28
2018-07-10T02:58:58.319Z,932.20
2018-07-10T02:59:58.280Z,932.21
2018-07-10T03:00:58.271Z,932.23
2018-07-10T03:01:58.251Z,932.21
2018-07-10T03:02:58.201Z,932.17
2018-07-10T03:03:58.206Z,932.16
2018-07-10T03:04:58.174Z,932.07
2018-07-10T03:05:58.155Z,932.05
2018-07-10T03:06:58.109Z,932.06
2018-07-10T03:07:58.111Z,932.11
2018-07-10T03:08:58.060Z,932.07
2018-07-10T03:09:58.059Z,932.09
2018-07-10T03:10:58.019Z,932.13
2018-07-10T03:11:57.985Z,932.09
2018-07-10T03:12:57.973Z,932.05
2018-07-10T03:13:57.962Z,932.07
2018-07-10T03:14:57.914Z,932.09
2018-07-10T03:15:57.925Z,932.08
2018-07-10T03:16:57.874Z,932.06
2018-07-10T03:17:57.840Z,932.11
2018-07-10T03:18:57.819Z,932.13
2018-07-10T03:19:57.819Z,932.14
2018-07-10T03:20:57.772Z,932.16
2018-07-10T03:21:57.750Z,932.14
2018-07-10T03:22:57.774Z,932.23
2018-07-10T03:23:57.694Z,932.20
2018-07-10T03:24:57.702Z,932.16
2018-07-10T03:25:57.680Z,932.09
2018-07-10T03:26:57.629Z,932.11
2018-07-10T03:27:57.636Z,932.10
2018-07-10T03:28:57.584Z,932.06
2018-07-10T03:29:57.556Z,932.04
2018-07-10T03:30:57.566Z,931.97
2018-07-10T03:31:57.510Z,931.96
2018-07-10T03:32:57.513Z,932.00
2018-07-10T03:33:57.491Z,932.01
2018-07-10T03:34:57.438Z,932.05
2018-07-10T03:35:57.421Z,932.06
2018-07-10T03:36:57.417Z,932.07
2018-07-10T03:37:57.399Z,932.07
2018-07-10T03:38:57.374Z,932.02
2018-07-10T03:39:57.345Z,931.99
2018-07-10T03:40:57.298Z,932.02
2018-07-10T03:41:57.268Z,932.02
2018-07-10T03:42:57.244Z,932.03
2018-07-10T03:43:57.231Z,932.02
2018-07-10T03:44:57.203Z,932.04
2018-07-10T03:45:57.179Z,932.10
2018-07-10T03:46:57.154Z,932.01
2018-07-10T03:47:57.155Z,932.00
2018-07-10T03:48:57.105Z,931.92
2018-07-10T03:49:57.116Z,931.94
2018-07-10T03:50:57.060Z,931.86
2018-07-10T03:51:57.041Z,931.89
2018-07-10T03:52:57.026Z,931.92
2018-07-10T03:53:56.987Z,931.92
2018-07-10T03:54:56.986Z,931.87
2018-07-10T03:55:56.936Z,931.94
2018-07-10T03:56:56.916Z,931.98
2018-07-10T03:57:56.893Z,931.87
2018-07-10T03:58:56.891Z,931.91
2018-07-10T03:59:56.867Z,931.89
2018-07-10T04:00:56.835Z,931.74
2018-07-10T04:01:56.790Z,931.88
2018-07-10T04:02:56.800Z,931.86
2018-07-10T04:03:56.768Z,931.88
2018-07-10T04:04:56.730Z,931.84
2018-07-10T04:05:56.698Z,931.82
2018-07-10T04:06:56.669Z,931.83
2018-07-10T04:07:56.648Z,931.88
2018-07-10T04:08:56.641Z,931.86
2018-07-10T04:09:56.601Z,931.93
2018-07-10T04:10:56.587Z,931.89
2018-07-10T04:11:56.547Z,931.86
2018-07-10T04:12:56.520Z,931.86
2018-07-10T04:13:56.528Z,931.84
2018-07-10T04:14:56.504Z,931.85
2018-07-10T04:15:56.453Z,931.78
2018-07-10T04:16:56.455Z,931.81
2018-07-10T04:17:56.443Z,931.77
2018-07-10T04:18:56.385Z,931.79
2018-07-10T04:19:56.355Z,931.69
2018-07-10T04:20:56.330Z,931.68
2018-07-10T04:21:56.305Z,931.72
2018-07-10T04:22:56.280Z,931.70
2018-07-10T04:23:56.262Z,931.68
2018-07-10T04:24:56.234Z,931.69
2018-07-10T04:25:56.210Z,931.65
2018-07-10T04:26:56.184Z,931.66
2018-07-10T04:27:56.157Z,931.67
2018-07-10T04:28:56.267Z,931.69
2018-07-10T04:29:56.105Z,931.65
2018-07-10T04:30:56.085Z,931.66
2018-07-10T04:31:56.084Z,931.72
2018-07-10T04:32:56.053Z,931.75
2018-07-10T04:33:56.039Z,931.71
2018-07-10T04:34:56.016Z,931.72
2018-07-10T04:35:55.954Z,931.78
2018-07-10T04:36:55.936Z,931.77
2018-07-10T04:37:55.906Z,931.78
2018-07-10T04:38:55.919Z,931.83
2018-07-10T04:39:55.862Z,931.78
2018-07-10T04:40:55.838Z,931.74
2018-07-10T04:41:55.816Z,931.76
2018-07-10T04:42:55.814Z,931.69
2018-07-10T04:43:55.765Z,931.75
2018-07-10T04:44:55.767Z,931.79
2018-07-10T04:45:55.743Z,931.77
2018-07-10T04:46:55.699Z,931.74
2018-07-10T04:47:55.662Z,931.72
2018-07-10T04:48:55.668Z,931.73
2018-07-10T04:49:55.641Z,931.72
2018-07-10T04:50:55.606Z,931.73
2018-07-10T04:51:55.569Z,931.69
2018-07-10T04:52:55.567Z,931.72
2018-07-10T04:53:55.546Z,931.71
2018-07-10T04:54:55.520Z,931.76
2018-07-10T04:55:55.475Z,931.76
2018-07-10T04:56:55.456Z,931.73
2018-07-10T04:57:55.430Z,931.73
2018-07-10T04:58:55.410Z,931.76
2018-07-10T04:59:55.372Z,931.74
2018-07-10T05:00:55.371Z,931.74
2018-07-10T05:01:55.322Z,931.74
2018-07-10T05:02:55.295Z,931.74
2018-07-10T05:03:55.298Z,931.74
2018-07-10T05:04:55.249Z,931.71
2018-07-10T05:05:55.358Z,931.68
2018-07-10T05:06:55.228Z,931.71
2018-07-10T05:07:55.175Z,931.74
2018-07-10T05:08:55.148Z,931.70
2018-07-10T05:09:55.122Z,931.72
2018-07-10T05:10:55.094Z,931.74
2018-07-10T05:11:55.103Z,931.73
2018-07-10T05:12:55.074Z,931.74
2018-07-10T05:13:55.025Z,931.71
2018-07-10T05:14:55.018Z,931.70
2018-07-10T05:15:54.975Z,931.59
2018-07-10T05:16:54.950Z,931.63
2018-07-10T05:17:54.949Z,931.67
2018-07-10T05:18:54.926Z,931.64
2018-07-10T05:19:54.876Z,931.60
2018-07-10T05:20:54.879Z,931.55
2018-07-10T05:21:54.827Z,931.58
2018-07-10T05:22:54.844Z,931.59
2018-07-10T05:23:54.775Z,931.61
2018-07-10T05:24:54.749Z,931.63
2018-07-10T05:25:54.732Z,931.66
2018-07-10T05:26:54.726Z,931.59
2018-07-10T05:27:54.678Z,931.66
2018-07-10T05:28:54.783Z,931.62
2018-07-10T05:29:54.656Z,931.57
2018-07-10T05:30:54.612Z,931.57
2018-07-10T05:31:54.602Z,931.59
2018-07-10T05:32:54.560Z,931.61
2018-07-10T05:33:54.540Z,931.63
2018-07-10T05:34:54.501Z,931.61
2018-07-10T05:35:54.489Z,931.61
2018-07-10T05:36:54.462Z,931.54
2018-07-10T05:37:54.438Z,931.57
2018-07-10T05:38:54.412Z,931.54
2018-07-10T05:39:54.386Z,931.59
2018-07-10T05:40:54.354Z,931.65
2018-07-10T05:41:54.350Z,931.64
2018-07-10T05:42:54.329Z,931.64
2018-07-10T05:43:54.304Z,931.61
2018-07-10T05:44:54.254Z,931.67
2018-07-10T05:45:54.230Z,931.61
2018-07-10T05:46:54.229Z,931.65
2018-07-10T05:47:54.199Z,931.66
2018-07-10T05:48:54.166Z,931.65
2018-07-10T05:49:54.152Z,931.64
2018-07-10T05:50:54.100Z,931.68
2018-07-10T05:51:54.121Z,931.60
2018-07-10T05:52:54.051Z,931.68
2018-07-10T05:53:54.049Z,931.62
2018-07-10T05:54:54.000Z,931.66
2018-07-10T05:55:53.977Z,931.70
2018-07-10T05:56:53.974Z,931.68
2018-07-10T05:57:53.926Z,931.63
2018-07-10T05:58:53.923Z,931.67
2018-07-10T05:59:53.871Z,931.64
2018-07-10T06:00:53.861Z,931.65
2018-07-10T06:01:53.854Z,931.63
2018-07-10T06:02:53.799Z,931.64
2018-07-10T06:03:53.777Z,931.69
2018-07-10T06:04:53.774Z,931.68
2018-07-10T06:05:53.723Z,931.70
2018-07-10T06:06:53.724Z,931.72
2018-07-10T06:07:53.671Z,931.74
2018-07-10T06:08:53.673Z,931.79
2018-07-10T06:09:53.646Z,931.85
2018-07-10T06:10:53.620Z,931.78
2018-07-10T06:11:53.596Z,931.81
2018-07-10T06:12:53.546Z,931.72
2018-07-10T06:13:53.548Z,931.68
2018-07-10T06:14:53.519Z,931.70
2018-07-10T06:15:53.470Z,931.69
2018-07-10T06:16:53.455Z,931.72
2018-07-10T06:17:53.443Z,931.76
2018-07-10T06:18:53.423Z,931.78
2018-07-10T06:19:53.369Z,931.80
2018-07-10T06:20:53.345Z,931.73
2018-07-10T06:21:53.320Z,931.76
2018-07-10T06:22:53.318Z,931.71
2018-07-10T06:23:53.275Z,931.72
2018-07-10T06:24:53.242Z,931.71
2018-07-10T06:25:53.220Z,931.77
2018-07-10T06:26:53.223Z,931.76
2018-07-10T06:27:53.169Z,931.77
2018-07-10T06:28:53.138Z,931.72
2018-07-10T06:29:53.146Z,931.66
2018-07-10T06:30:53.121Z,931.67
2018-07-10T06:31:53.096Z,931.61
2018-07-10T06:32:53.068Z,931.59
2018-07-10T06:33:53.024Z,931.60
2018-07-10T06:34:53.005Z,931.62
2018-07-10T06:35:52.974Z,931.66
2018-07-10T06:36:52.943Z,931.63
2018-07-10T06:37:52.945Z,931.60
2018-07-10T06:38:52.895Z,931.58
2018-07-10T06:39:52.931Z,931.54
2018-07-10T06:40:52.853Z,931.49
2018-07-10T06:41:52.815Z,931.47
2018-07-10T06:42:52.791Z,931.50
2018-07-10T06:43:52.793Z,931.51
2018-07-10T06:44:52.772Z,931.54
2018-07-10T06:45:52.711Z,931.51
2018-07-10T06:46:52.693Z,931.45
2018-07-10T06:47:52.667Z,931.40
2018-07-10T06:48:52.642Z,931.46
2018-07-10T06:49:52.627Z,931.41
2018-07-10T06:50:52.590Z,931.36
2018-07-10T06:51:52.561Z,931.35
2018-07-10T06:52:52.744Z,931.31
2018-07-10T06:53:52.541Z,931.26
2018-07-10T06:54:52.516Z,931.25
2018-07-10T06:55:52.467Z,931.25
2018-07-10T06:56:52.449Z,931.26
2018-07-10T06:57:52.429Z,931.25
2018-07-10T06:58:52.394Z,931.29
2018-07-10T06:59:52.355Z,931.31
2018-07-10T07:01:25.587Z,931.33
2018-07-10T07:01:52.305Z,931.34
2018-07-10T07:02:52.310Z,931.37
2018-07-10T07:03:52.259Z,931.36
2018-07-10T07:04:52.228Z,931.43
2018-07-10T07:05:52.234Z,931.43
2018-07-10T07:06:52.209Z,931.41
2018-07-10T07:07:52.248Z,931.47
2018-07-10T07:08:52.138Z,931.49
2018-07-10T07:09:52.102Z,931.50
2018-07-10T07:10:52.107Z,931.48
2018-07-10T07:11:52.057Z,931.54
2018-07-10T07:12:52.026Z,931.52
2018-07-10T07:13:52.037Z,931.45
2018-07-10T07:14:51.975Z,931.53
2018-07-10T07:15:52.055Z,931.54
2018-07-10T07:16:51.930Z,931.48
2018-07-10T07:17:51.908Z,931.46
2018-07-10T07:18:51.904Z,931.49
2018-07-10T07:19:51.886Z,931.53
2018-07-10T07:20:51.828Z,931.57
2018-07-10T07:21:51.836Z,931.66
2018-07-10T07:22:51.812Z,931.70
2018-07-10T07:23:51.806Z,931.71
2018-07-10T07:24:51.755Z,931.71
2018-07-10T07:25:51.720Z,931.67
2018-07-10T07:26:51.708Z,931.64
2018-07-10T07:27:51.680Z,931.68
2018-07-10T07:28:51.622Z,931.72
2018-07-10T07:29:51.601Z,931.72
2018-07-10T07:30:51.584Z,931.75
2018-07-10T07:31:51.549Z,931.79
2018-07-10T07:32:51.556Z,931.82
2018-07-10T07:33:51.501Z,931.82
2018-07-10T07:34:51.547Z,931.86
2018-07-10T07:35:51.459Z,931.83
2018-07-10T07:36:51.422Z,931.87
2018-07-10T07:37:51.401Z,931.83
2018-07-10T07:38:51.401Z,931.74
2018-07-10T07:39:51.373Z,931.74
2018-07-10T07:40:51.328Z,931.74
2018-07-10T07:41:51.300Z,931.67
2018-07-10T07:42:51.278Z,931.63
2018-07-10T07:43:51.308Z,931.66
2018-07-10T07:44:51.250Z,931.63
2018-07-10T07:45:51.222Z,931.70
2018-07-10T07:46:51.201Z,931.73
2018-07-10T07:47:51.147Z,931.73
2018-07-10T07:48:51.119Z,931.75
2018-07-10T07:49:51.100Z,931.82
2018-07-10T07:50:51.078Z,931.79
2018-07-10T07:51:51.060Z,931.74
2018-07-10T07:52:51.019Z,931.77
2018-07-10T07:53:50.991Z,931.70
2018-07-10T07:54:50.995Z,931.70
2018-07-10T07:55:50.965Z,931.71
2018-07-10T07:56:50.940Z,931.68
2018-07-10T07:57:50.900Z,931.66
2018-07-10T07:58:50.867Z,931.68
2018-07-10T07:59:50.835Z,931.66
2018-07-10T08:00:50.818Z,931.59
2018-07-10T08:01:50.795Z,931.62
2018-07-10T08:02:50.796Z,931.62
2018-07-10T08:03:50.763Z,931.61
2018-07-10T08:04:50.716Z,931.68
2018-07-10T08:05:50.713Z,931.73
2018-07-10T08:06:50.677Z,931.73
2018-07-10T08:07:50.666Z,931.76
2018-07-10T08:08:50.615Z,931.86
2018-07-10T08:09:50.619Z,931.81
2018-07-10T08:10:50.569Z,931.87
2018-07-10T08:11:50.536Z,931.82
2018-07-10T08:12:50.522Z,931.84
2018-07-10T08:13:50.484Z,932.00
2018-07-10T08:14:50.459Z,932.00
2018-07-10T08:15:50.450Z,931.97
2018-07-10T08:16:50.411Z,931.96
2018-07-10T08:17:50.381Z,931.99
2018-07-10T08:18:50.368Z,931.99
2018-07-10T08:19:50.359Z,931.94
2018-07-10T08:20:50.305Z,931.92
2018-07-10T08:21:50.290Z,931.83
2018-07-10T08:22:50.283Z,931.87
2018-07-10T08:23:50.234Z,931.87
2018-07-10T08:24:50.240Z,931.81
2018-07-10T08:25:50.182Z,931.75
2018-07-10T08:26:50.182Z,931.64
2018-07-10T08:27:50.166Z,931.63
2018-07-10T08:28:50.130Z,931.64
2018-07-10T08:29:50.094Z,931.71
2018-07-10T08:30:50.060Z,931.74
2018-07-10T08:31:50.030Z,931.78
2018-07-10T08:32:50.031Z,931.80
2018-07-10T08:33:50.099Z,931.84
2018-07-10T08:34:49.960Z,931.87
2018-07-10T08:35:49.928Z,931.89
2018-07-10T08:36:49.901Z,931.95
2018-07-10T08:37:49.877Z,931.97
2018-07-10T08:38:49.862Z,932.13
2018-07-10T08:40:23.063Z,932.01
2018-07-10T08:40:49.797Z,932.17
2018-07-10T08:41:49.804Z,932.12
2018-07-10T08:42:49.776Z,932.22
2018-07-10T08:43:49.728Z,932.24
2018-07-10T08:44:49.703Z,932.23
2018-07-10T08:45:49.706Z,932.26
2018-07-10T08:46:49.653Z,932.30
2018-07-10T08:47:49.623Z,932.22
2018-07-10T08:48:49.603Z,932.13
2018-07-10T08:49:49.584Z,932.05
2018-07-10T08:50:49.553Z,932.02
2018-07-10T08:51:49.538Z,932.01
2018-07-10T08:52:49.530Z,932.04
2018-07-10T08:53:49.472Z,932.03
2018-07-10T08:54:49.449Z,932.03
2018-07-10T08:55:49.421Z,932.06
2018-07-10T08:56:49.399Z,932.10
2018-07-10T08:57:49.389Z,932.16
2018-07-10T08:58:49.373Z,932.17
2018-07-10T08:59:49.358Z,932.22
2018-07-10T09:00:49.324Z,932.28
2018-07-10T09:01:49.301Z,932.33
2018-07-10T09:02:49.244Z,932.39
2018-07-10T09:03:49.245Z,932.34
2018-07-10T09:04:49.201Z,932.31
2018-07-10T09:05:49.170Z,932.38
2018-07-10T09:06:49.177Z,932.34
2018-07-10T09:07:49.148Z,932.31
2018-07-10T09:08:49.121Z,932.22
2018-07-10T09:09:49.099Z,932.15
2018-07-10T09:10:49.044Z,932.16
2018-07-10T09:11:49.021Z,932.13
2018-07-10T09:12:49.018Z,932.17
2018-07-10T09:13:49.044Z,932.21
2018-07-10T09:14:48.975Z,932.17
2018-07-10T09:15:48.915Z,932.13
2018-07-10T09:16:48.906Z,932.19
2018-07-10T09:17:48.869Z,932.27
2018-07-10T09:18:48.837Z,932.28
2018-07-10T09:19:48.842Z,932.38
2018-07-10T09:20:48.793Z,932.36
2018-07-10T09:21:48.797Z,932.43
2018-07-10T09:22:48.766Z,932.40
2018-07-10T09:23:48.739Z,932.35
2018-07-10T09:24:48.715Z,932.45
2018-07-10T09:25:48.666Z,932.46
2018-07-10T09:26:48.640Z,932.52
2018-07-10T09:27:48.619Z,932.55
2018-07-10T09:28:48.594Z,932.57
2018-07-10T09:29:48.564Z,932.67
2018-07-10T09:30:48.568Z,932.71
2018-07-10T09:31:48.510Z,932.74
2018-07-10T09:32:48.488Z,932.75
2018-07-10T09:33:48.512Z,932.65
2018-07-10T09:34:48.452Z,932.50
2018-07-10T09:35:48.441Z,932.42
2018-07-10T09:36:48.397Z,932.30
2018-07-10T09:37:48.388Z,932.17
2018-07-10T09:38:48.362Z,932.33
2018-07-10T09:39:48.382Z,932.39
2018-07-10T09:40:48.280Z,932.44
2018-07-10T09:41:48.266Z,932.58
2018-07-10T09:42:48.236Z,932.59
2018-07-10T09:43:48.221Z,932.64
2018-07-10T09:44:48.192Z,932.66
2018-07-10T09:45:48.160Z,932.69
2018-07-10T09:46:48.140Z,932.77
2018-07-10T09:47:48.124Z,932.75
2018-07-10T09:48:48.110Z,932.75
2018-07-10T09:49:48.055Z,932.72
2018-07-10T09:50:48.032Z,932.76
2018-07-10T09:51:48.031Z,932.82
2018-07-10T09:52:48.006Z,932.85
2018-07-10T09:53:47.981Z,932.78
2018-07-10T09:54:48.035Z,932.88
2018-07-10T09:55:47.901Z,932.82
2018-07-10T09:56:47.879Z,932.88
2018-07-10T09:57:47.883Z,932.84
2018-07-10T09:58:47.853Z,932.83
2018-07-10T09:59:47.802Z,932.81
2018-07-10T10:00:47.774Z,932.75
2018-07-10T10:01:47.779Z,932.75
2018-07-10T10:02:47.749Z,932.81
2018-07-10T10:03:47.725Z,932.69
2018-07-10T10:04:47.670Z,932.79
2018-07-10T10:05:47.645Z,932.80
2018-07-10T10:06:47.631Z,932.85
2018-07-10T10:07:47.599Z,932.93
2018-07-10T10:08:47.570Z,932.93
2018-07-10T10:09:47.542Z,932.99
2018-07-10T10:10:47.517Z,933.05
2018-07-10T10:11:47.519Z,933.17
2018-07-10T10:12:47.494Z,933.05
2018-07-10T10:13:47.440Z,933.10
2018-07-10T10:14:47.418Z,933.02
2018-07-10T10:15:47.387Z,932.99
2018-07-10T10:16:47.369Z,932.96
2018-07-10T10:17:47.333Z,932.85
2018-07-10T10:18:47.326Z,932.87
2018-07-10T10:19:47.303Z,932.85
2018-07-10T10:20:47.289Z,932.92
2018-07-10T10:21:47.233Z,932.98
2018-07-10T10:22:47.240Z,933.07
2018-07-10T10:23:47.185Z,933.10
2018-07-10T10:24:47.188Z,933.10
2018-07-10T10:25:47.156Z,933.07
2018-07-10T10:26:47.135Z,933.06
2018-07-10T10:27:47.087Z,933.02
2018-07-10T10:28:47.053Z,933.02
2018-07-10T10:29:47.102Z,933.04
2018-07-10T10:30:47.030Z,933.06
2018-07-10T10:31:46.973Z,933.12
2018-07-10T10:32:46.979Z,933.17
2018-07-10T10:33:46.926Z,933.23
2018-07-10T10:34:46.927Z,933.27
2018-07-10T10:35:46.890Z,933.28
2018-07-10T10:36:46.849Z,933.32
2018-07-10T10:37:46.825Z,933.32
2018-07-10T10:38:46.802Z,933.32
2018-07-10T10:39:46.776Z,933.38
2018-07-10T10:40:46.745Z,933.39
2018-07-10T10:41:46.726Z,933.42
2018-07-10T10:42:46.731Z,933.46
2018-07-10T10:43:46.672Z,933.41
2018-07-10T10:44:46.659Z,933.46
2018-07-10T10:45:46.636Z,933.32
2018-07-10T10:46:46.630Z,933.13
2018-07-10T10:47:46.578Z,933.05
2018-07-10T10:48:46.553Z,933.01
2018-07-10T10:49:46.523Z,932.98
2018-07-10T10:50:46.511Z,932.95
2018-07-10T10:51:46.500Z,932.98
2018-07-10T10:52:46.478Z,933.00
2018-07-10T10:53:46.431Z,932.94
2018-07-10T10:54:46.424Z,933.00
2018-07-10T10:55:46.389Z,932.96
2018-07-10T10:56:46.377Z,933.04
2018-07-10T10:57:46.348Z,933.18
2018-07-10T10:58:46.302Z,933.24
2018-07-10T10:59:46.288Z,933.21
2018-07-10T11:00:46.254Z,933.25
2018-07-10T11:01:46.247Z,933.25
2018-07-10T11:02:46.275Z,933.27
2018-07-10T11:03:46.169Z,933.31
2018-07-10T11:04:46.143Z,933.36
2018-07-10T11:05:46.143Z,933.43
2018-07-10T11:06:46.120Z,933.44
2018-07-10T11:07:46.068Z,933.54
2018-07-10T11:08:46.069Z,933.55
2018-07-10T11:09:46.025Z,933.55
2018-07-10T11:10:46.018Z,933.45
2018-07-10T11:11:45.993Z,933.41
2018-07-10T11:12:45.967Z,933.41
2018-07-10T11:13:45.946Z,933.45
2018-07-10T11:14:45.920Z,933.47
2018-07-10T11:15:45.896Z,933.45
2018-07-10T11:16:45.842Z,933.49
2018-07-10T11:17:45.846Z,933.47
2018-07-10T11:18:45.792Z,933.50
2018-07-10T11:19:45.770Z,933.52
2018-07-10T11:20:45.776Z,933.57
2018-07-10T11:21:45.721Z,933.56
2018-07-10T11:22:45.692Z,933.70
2018-07-10T11:23:45.685Z,933.74
2018-07-10T11:24:45.675Z,933.78
2018-07-10T11:25:45.630Z,933.81
2018-07-10T11:26:45.598Z,933.87
2018-07-10T11:27:45.568Z,933.86
2018-07-10T11:28:45.568Z,933.82
2018-07-10T11:29:45.527Z,933.84
2018-07-10T11:30:45.507Z,933.80
2018-07-10T11:31:45.470Z,933.78
2018-07-10T11:32:45.446Z,933.78
2018-07-10T11:33:45.451Z,933.76
2018-07-10T11:34:45.397Z,933.86
2018-07-10T11:35:45.396Z,933.90
2018-07-10T11:36:45.349Z,933.94
2018-07-10T11:37:45.321Z,933.96
2018-07-10T11:38:45.289Z,933.95
2018-07-10T11:39:45.277Z,933.96
2018-07-10T11:40:45.262Z,933.95
2018-07-10T11:41:45.249Z,933.86
2018-07-10T11:42:45.194Z,933.86
2018-07-10T11:43:45.179Z,933.89
2018-07-10T11:44:45.142Z,933.95
2018-07-10T11:45:45.183Z,933.96
2018-07-10T11:46:45.100Z,933.99
2018-07-10T11:47:45.084Z,934.03
2018-07-10T11:48:45.047Z,934.05
2018-07-10T11:49:45.028Z,933.99
2018-07-10T11:50:45.001Z,933.97
2018-07-10T11:51:45.048Z,934.03
2018-07-10T11:52:44.962Z,933.99
2018-07-10T11:53:44.927Z,934.01
2018-07-10T11:54:44.897Z,933.98
2018-07-10T11:55:44.874Z,933.96
2018-07-10T11:56:44.857Z,933.98
2018-07-10T11:57:44.854Z,934.01
2018-07-10T11:58:44.802Z,933.98
2018-07-10T11:59:44.804Z,934.05
2018-07-10T12:00:44.754Z,934.07
2018-07-10T12:01:44.730Z,934.08
2018-07-10T12:02:44.707Z,934.17
2018-07-10T12:03:44.682Z,934.28
2018-07-10T12:04:44.688Z,934.24
2018-07-10T12:05:44.632Z,934.27
2018-07-10T12:06:44.637Z,934.33
2018-07-10T12:07:44.610Z,934.30
2018-07-10T12:08:44.563Z,934.36
2018-07-10T12:09:44.537Z,934.38
2018-07-10T12:10:44.536Z,934.27
2018-07-10T12:11:44.482Z,934.26
2018-07-10T12:12:44.471Z,934.28
2018-07-10T12:13:44.469Z,934.26
2018-07-10T12:14:44.419Z,934.30
2018-07-10T12:15:44.535Z,934.24
2018-07-10T12:16:44.370Z,934.24
2018-07-10T12:17:44.343Z,934.18
2018-07-10T12:18:44.345Z,934.23
2018-07-10T12:19:44.300Z,934.27
2018-07-10T12:20:44.293Z,934.31
2018-07-10T12:21:44.261Z,934.26
2018-07-10T12:22:44.226Z,934.27
2018-07-10T12:23:44.210Z,934.31
2018-07-10T12:24:44.209Z,934.27
2018-07-10T12:25:44.173Z,934.32
2018-07-10T12:26:44.156Z,934.38
2018-07-10T12:27:44.108Z,934.32